createdAt,value
2023-01-19T00:07:23.141Z,0.08
2023-01-19T00:17:25.621Z,0.02
2023-01-19T00:27:30.493Z,0.00
2023-01-19T00:37:32.926Z,-0.02
2023-01-19T00:47:36.847Z,-0.17
2023-01-19T00:57:39.587Z,-0.10
2023-01-19T01:07:45.100Z,-0.22
2023-01-19T01:17:48.144Z,-0.26
2023-01-19T01:27:52.397Z,-0.24
2023-01-19T01:37:58.615Z,-0.32
2023-01-19T01:48:05.061Z,-0.32
2023-01-19T01:58:09.662Z,-0.40
2023-01-19T02:08:34.028Z,-0.39
2023-01-19T02:18:37.185Z,-0.46
2023-01-19T02:28:43.608Z,-0.52
2023-01-19T02:38:46.774Z,-0.48
2023-01-19T02:48:50.603Z,-0.55
2023-01-19T02:58:58.102Z,-0.64
2023-01-19T03:09:03.644Z,-0.69
2023-01-19T03:19:09.191Z,-0.73
2023-01-19T03:29:13.847Z,-0.83
2023-01-19T03:39:19.891Z,-0.78
2023-01-19T03:49:23.858Z,-0.64
2023-01-19T03:59:26.349Z,-0.85
2023-01-19T04:09:30.234Z,-0.84
2023-01-19T04:19:32.728Z,-0.96
2023-01-19T04:29:36.510Z,-0.93
2023-01-19T04:39:38.928Z,-0.89
2023-01-19T04:49:42.705Z,-0.95
2023-01-19T04:59:45.334Z,-0.90
2023-01-19T05:09:49.119Z,-0.96
2023-01-19T05:19:51.599Z,-0.98
2023-01-19T05:29:55.407Z,-0.87
2023-01-19T05:39:57.833Z,-1.02
2023-01-19T05:50:01.655Z,-1.09
2023-01-19T06:00:04.455Z,-1.24
2023-01-19T06:10:09.317Z,-1.16
2023-01-19T06:20:14.308Z,-1.21
2023-01-19T06:30:18.515Z,-1.25
2023-01-19T06:40:21.061Z,-1.30
2023-01-19T06:50:24.929Z,-1.32
2023-01-19T07:00:27.623Z,-1.44
2023-01-19T07:11:25.347Z,-1.52
2023-01-19T07:20:54.168Z,-1.61
2023-01-19T07:30:58.487Z,-1.65
2023-01-19T07:41:01.269Z,-1.57
2023-01-19T07:51:09.878Z,-1.57
2023-01-19T08:01:14.731Z,-1.46
2023-01-19T08:11:18.614Z,-1.49
2023-01-19T08:21:21.383Z,-1.43
2023-01-19T08:31:25.610Z,-1.32
2023-01-19T08:41:28.130Z,-1.09
2023-01-19T08:51:32.032Z,-1.03
2023-01-19T09:01:34.542Z,-0.88
2023-01-19T09:11:38.384Z,-0.67
2023-01-19T09:21:40.977Z,-0.45
2023-01-19T09:31:45.585Z,-0.17
2023-01-19T09:41:50.050Z,0.06
2023-01-19T09:51:53.942Z,0.42
2023-01-19T10:02:03.702Z,0.47
2023-01-19T10:12:11.935Z,0.44
2023-01-19T10:22:20.470Z,0.61
2023-01-19T10:32:25.731Z,0.57
2023-01-19T10:42:30.101Z,0.68
2023-01-19T10:52:35.506Z,0.84
2023-01-19T11:02:38.017Z,1.08
2023-01-19T11:12:43.577Z,1.31
2023-01-19T11:22:48.571Z,1.27
2023-01-19T11:32:52.735Z,1.53
2023-01-19T11:42:55.222Z,1.38
2023-01-19T11:53:01.247Z,3.65
2023-01-19T12:03:05.528Z,3.70
2023-01-19T12:13:14.104Z,3.40
2023-01-19T12:23:23.798Z,2.91
2023-01-19T12:33:37.911Z,2.63
2023-01-19T12:43:40.449Z,2.65
2023-01-19T12:53:51.636Z,2.54
2023-01-19T13:04:01.843Z,2.88
2023-01-19T13:14:25.349Z,2.63
2023-01-19T13:24:49.091Z,2.40
2023-01-19T13:34:53.936Z,2.40
2023-01-19T13:44:59.828Z,2.18
2023-01-19T13:55:03.910Z,2.26
2023-01-19T14:05:21.867Z,2.05
2023-01-19T14:15:24.411Z,2.14
2023-01-19T14:25:32.130Z,2.10
2023-01-19T14:35:35.246Z,2.12
2023-01-19T14:45:41.356Z,2.10
2023-01-19T14:55:46.724Z,2.29
2023-01-19T15:05:50.895Z,3.14
2023-01-19T15:15:53.975Z,2.77
2023-01-19T15:26:01.334Z,2.76
2023-01-19T15:36:05.342Z,7.68
2023-01-19T15:46:11.798Z,4.74
2023-01-19T15:56:15.121Z,3.15
2023-01-19T16:06:18.958Z,2.85
2023-01-19T16:16:22.393Z,2.38
2023-01-19T16:26:27.849Z,2.43
2023-01-19T16:36:31.179Z,2.37
2023-01-19T16:46:36.475Z,2.31
2023-01-19T16:56:39.112Z,2.24
2023-01-19T17:06:42.876Z,2.16
2023-01-19T17:16:45.366Z,2.20
2023-01-19T17:27:05.044Z,1.96
2023-01-19T17:37:07.525Z,2.04
2023-01-19T17:47:11.392Z,2.01
2023-01-19T17:57:13.855Z,2.10
2023-01-19T18:07:17.784Z,1.98
2023-01-19T18:17:20.743Z,1.96
2023-01-19T18:27:24.501Z,1.98
2023-01-19T18:37:26.947Z,2.03
2023-01-19T18:47:30.856Z,1.94
2023-01-19T18:57:34.841Z,1.89
2023-01-19T19:07:38.673Z,1.89
2023-01-19T19:17:41.191Z,1.89
2023-01-19T19:27:45.491Z,1.88
2023-01-19T19:37:48.335Z,1.84
2023-01-19T19:47:52.176Z,1.81
2023-01-19T19:57:55.136Z,1.86
2023-01-19T20:07:59.053Z,1.79
2023-01-19T20:18:01.540Z,1.89
2023-01-19T20:28:05.576Z,1.67
2023-01-19T20:38:08.566Z,1.64
2023-01-19T20:48:12.390Z,1.61
2023-01-19T20:58:14.823Z,1.57
2023-01-19T21:08:18.722Z,1.50
2023-01-19T21:18:21.320Z,1.36
2023-01-19T21:28:25.809Z,1.36
2023-01-19T21:38:29.164Z,1.26
2023-01-19T21:48:33.446Z,1.45
2023-01-19T21:58:35.996Z,1.36
2023-01-19T22:08:40.241Z,1.56
2023-01-19T22:18:43.780Z,1.50
2023-01-19T22:28:47.582Z,1.36
2023-01-19T22:38:51.446Z,1.39
2023-01-19T22:48:55.674Z,1.24
2023-01-19T22:58:58.899Z,1.12
2023-01-19T23:09:04.681Z,0.81
2023-01-19T23:19:07.529Z,0.77
2023-01-19T23:29:12.996Z,0.70
2023-01-19T23:39:16.805Z,0.57
2023-01-19T23:49:20.612Z,0.52
2023-01-19T23:59:23.052Z,0.45
